sensor_id;sensor_type;location;lat;lon;timestamp;pressure;altitude;pressure_sealevel;temperature;humidity
32789;BME280;19141;48.980;8.410;2023-03-22T05:22:33;99927.00;;;5.16;100.00
32789;BME280;19141;48.980;8.410;2023-03-22T05:25:04;99929.09;;;5.13;100.00
32789;BME280;19141;48.980;8.410;2023-03-22T05:27:29;99929.84;;;5.05;100.00
32789;BME280;19141;48.980;8.410;2023-03-22T05:30:00;99941.13;;;4.98;100.00
32789;BME280;19141;48.980;8.410;2023-03-22T05:32:37;99941.28;;;4.96;100.00
32789;BME280;19141;48.980;8.410;2023-03-22T05:35:07;99944.19;;;4.93;100.00
32789;BME280;19141;48.980;8.410;2023-03-22T05:37:37;99931.81;;;4.94;100.00
32789;BME280;19141;48.980;8.410;2023-03-22T05:40:03;99940.81;;;5.01;100.00
32789;BME280;19141;48.980;8.410;2023-03-22T05:42:35;99945.13;;;5.02;100.00
32789;BME280;19141;48.980;8.410;2023-03-22T05:45:06;99944.28;;;5.01;100.00
32789;BME280;19141;48.980;8.410;2023-03-22T05:47:32;99943.03;;;5.05;100.00
32789;BME280;19141;48.980;8.410;2023-03-22T05:50:07;99941.66;;;5.01;100.00
32789;BME280;19141;48.980;8.410;2023-03-22T05:52:33;99942.72;;;5.08;100.00
32789;BME280;19141;48.980;8.410;2023-03-22T05:55:15;99946.59;;;5.14;100.00
32789;BME280;19141;48.980;8.410;2023-03-22T05:57:45;99943.13;;;5.13;100.00
32789;BME280;19141;48.980;8.410;2023-03-22T06:00:13;99947.56;;;5.23;100.00
32789;BME280;19141;48.980;8.410;2023-03-22T06:02:55;99944.59;;;5.26;100.00
32789;BME280;19141;48.980;8.410;2023-03-22T06:05:22;99953.69;;;5.41;100.00
32789;BME280;19141;48.980;8.410;2023-03-22T06:07:49;99953.03;;;5.39;100.00
32789;BME280;19141;48.980;8.410;2023-03-22T06:10:16;99954.09;;;5.46;100.00
32789;BME280;19141;48.980;8.410;2023-03-22T06:12:42;99943.09;;;5.51;100.00
32789;BME280;19141;48.980;8.410;2023-03-22T06:15:13;99945.66;;;5.60;100.00
32789;BME280;19141;48.980;8.410;2023-03-22T06:17:49;99942.00;;;5.71;100.00
32789;BME280;19141;48.980;8.410;2023-03-22T06:20:20;99941.63;;;5.84;100.00
32789;BME280;19141;48.980;8.410;2023-03-22T06:22:51;99944.09;;;5.95;100.00
32789;BME280;19141;48.980;8.410;2023-03-22T06:25:17;99942.94;;;6.15;100.00
32789;BME280;19141;48.980;8.410;2023-03-22T06:27:44;99949.34;;;6.31;100.00
32789;BME280;19141;48.980;8.410;2023-03-22T06:30:10;99953.63;;;6.49;100.00
32789;BME280;19141;48.980;8.410;2023-03-22T06:32:54;99955.94;;;6.70;100.00
32789;BME280;19141;48.980;8.410;2023-03-22T06:35:22;99950.41;;;6.90;100.00
32789;BME280;19141;48.980;8.410;2023-03-22T06:37:47;99949.91;;;7.12;100.00
32789;BME280;19141;48.980;8.410;2023-03-22T06:40:14;99946.69;;;7.34;100.00
32789;BME280;19141;48.980;8.410;2023-03-22T06:42:39;99942.44;;;7.50;100.00
32789;BME280;19141;48.980;8.410;2023-03-22T06:45:10;99935.81;;;7.62;100.00
32789;BME280;19141;48.980;8.410;2023-03-22T06:47:40;99942.50;;;7.74;100.00
32789;BME280;19141;48.980;8.410;2023-03-22T06:50:12;99945.69;;;7.94;100.00
32789;BME280;19141;48.980;8.410;2023-03-22T06:53:08;99947.72;;;8.25;100.00
32789;BME280;19141;48.980;8.410;2023-03-22T06:55:34;99952.00;;;8.26;100.00
32789;BME280;19141;48.980;8.410;2023-03-22T06:58:10;99958.84;;;8.61;100.00
32789;BME280;19141;48.980;8.410;2023-03-22T07:00:36;99961.47;;;8.93;100.00
32789;BME280;19141;48.980;8.410;2023-03-22T07:03:04;99974.63;;;9.34;99.12
32789;BME280;19141;48.980;8.410;2023-03-22T07:05:38;99969.47;;;9.72;98.08
32789;BME280;19141;48.980;8.410;2023-03-22T07:08:04;99972.72;;;9.82;97.31
32789;BME280;19141;48.980;8.410;2023-03-22T07:10:30;99971.69;;;9.60;93.90
32789;BME280;19141;48.980;8.410;2023-03-22T07:12:55;99980.63;;;9.67;93.98
32789;BME280;19141;48.980;8.410;2023-03-22T07:15:22;99968.25;;;9.83;93.52
32789;BME280;19141;48.980;8.410;2023-03-22T07:18:04;99968.91;;;10.07;94.46
32789;BME280;19141;48.980;8.410;2023-03-22T07:20:32;99962.78;;;10.30;94.73
32789;BME280;19141;48.980;8.410;2023-03-22T07:23:01;99967.47;;;10.51;93.63
32789;BME280;19141;48.980;8.410;2023-03-22T07:25:31;99963.00;;;10.66;91.92
32789;BME280;19141;48.980;8.410;2023-03-22T07:28:10;99964.03;;;10.80;87.76
32789;BME280;19141;48.980;8.410;2023-03-22T07:30:36;99953.66;;;11.00;89.23
32789;BME280;19141;48.980;8.410;2023-03-22T07:33:03;99953.56;;;11.08;87.07
32789;BME280;19141;48.980;8.410;2023-03-22T07:35:29;99956.50;;;11.28;86.84
32789;BME280;19141;48.980;8.410;2023-03-22T07:37:55;99954.06;;;11.41;85.12
32789;BME280;19141;48.980;8.410;2023-03-22T07:40:26;99940.09;;;11.60;82.77
32789;BME280;19141;48.980;8.410;2023-03-22T07:42:53;99961.78;;;11.72;82.30
32789;BME280;19141;48.980;8.410;2023-03-22T07:45:33;99961.25;;;11.77;82.51
32789;BME280;19141;48.980;8.410;2023-03-22T07:48:18;99963.41;;;12.03;83.13
32789;BME280;19141;48.980;8.410;2023-03-22T07:50:59;99969.09;;;12.14;79.31
32789;BME280;19141;48.980;8.410;2023-03-22T07:53:25;99951.47;;;12.20;78.12
32789;BME280;19141;48.980;8.410;2023-03-22T07:55:51;99959.94;;;12.52;76.76
32789;BME280;19141;48.980;8.410;2023-03-22T07:58:16;99965.03;;;12.68;80.35
32789;BME280;19141;48.980;8.410;2023-03-22T08:00:42;99959.78;;;12.81;78.50
32789;BME280;19141;48.980;8.410;2023-03-22T08:03:40;99965.13;;;13.09;76.48
32789;BME280;19141;48.980;8.410;2023-03-22T08:06:31;99958.88;;;13.30;76.73
32789;BME280;19141;48.980;8.410;2023-03-22T08:08:57;99952.63;;;13.51;70.80
32789;BME280;19141;48.980;8.410;2023-03-22T08:11:23;99950.59;;;13.60;71.63
32789;BME280;19141;48.980;8.410;2023-03-22T08:13:49;99955.00;;;13.80;70.01
32789;BME280;19141;48.980;8.410;2023-03-22T08:16:15;99946.19;;;14.00;71.07
32789;BME280;19141;48.980;8.410;2023-03-22T08:18:41;99956.31;;;14.11;68.99
32789;BME280;19141;48.980;8.410;2023-03-22T08:21:07;99948.72;;;14.34;66.54
32789;BME280;19141;48.980;8.410;2023-03-22T08:23:33;99951.84;;;14.71;63.56
32789;BME280;19141;48.980;8.410;2023-03-22T08:26:22;99952.44;;;14.93;61.84
32789;BME280;19141;48.980;8.410;2023-03-22T08:28:50;99948.72;;;15.01;61.37
32789;BME280;19141;48.980;8.410;2023-03-22T08:31:16;99935.31;;;15.01;60.55
32789;BME280;19141;48.980;8.410;2023-03-22T08:33:45;99943.34;;;15.14;62.52
32789;BME280;19141;48.980;8.410;2023-03-22T08:36:14;99940.59;;;15.34;61.43
32789;BME280;19141;48.980;8.410;2023-03-22T08:38:46;99940.72;;;15.59;61.80
32789;BME280;19141;48.980;8.410;2023-03-22T08:41:14;99929.13;;;15.71;59.65
32789;BME280;19141;48.980;8.410;2023-03-22T08:43:41;99926.75;;;15.88;58.60
32789;BME280;19141;48.980;8.410;2023-03-22T08:46:07;99942.50;;;16.10;55.25
32789;BME280;19141;48.980;8.410;2023-03-22T08:48:33;99955.03;;;16.22;57.12
32789;BME280;19141;48.980;8.410;2023-03-22T08:51:19;99947.72;;;16.36;55.63
32789;BME280;19141;48.980;8.410;2023-03-22T08:54:05;99940.94;;;16.59;54.40
32789;BME280;19141;48.980;8.410;2023-03-22T08:57:00;99943.34;;;16.92;54.03
32789;BME280;19141;48.980;8.410;2023-03-22T08:59:46;99936.88;;;17.18;53.49
32789;BME280;19141;48.980;8.410;2023-03-22T09:02:28;99947.88;;;17.34;55.30
32789;BME280;19141;48.980;8.410;2023-03-22T09:04:55;99946.91;;;17.29;53.32
32789;BME280;19141;48.980;8.410;2023-03-22T09:07:20;99933.50;;;17.04;52.64
32789;BME280;19141;48.980;8.410;2023-03-22T09:09:55;99939.34;;;17.19;53.16
32789;BME280;19141;48.980;8.410;2023-03-22T09:12:21;99933.13;;;17.37;52.99
32789;BME280;19141;48.980;8.410;2023-03-22T09:14:47;99936.09;;;17.66;51.14
32789;BME280;19141;48.980;8.410;2023-03-22T09:17:14;99929.66;;;17.67;51.25
32789;BME280;19141;48.980;8.410;2023-03-22T09:19:40;99928.00;;;17.66;54.55
32789;BME280;19141;48.980;8.410;2023-03-22T09:22:05;99929.16;;;17.40;50.08
32789;BME280;19141;48.980;8.410;2023-03-22T09:24:43;99919.25;;;17.22;50.55
32789;BME280;19141;48.980;8.410;2023-03-22T09:27:09;99918.03;;;16.99;50.83
32789;BME280;19141;48.980;8.410;2023-03-22T09:29:34;99906.22;;;17.00;52.36
32789;BME280;19141;48.980;8.410;2023-03-22T09:32:04;99912.50;;;17.13;52.34
32789;BME280;19141;48.980;8.410;2023-03-22T09:34:32;99906.22;;;17.37;51.46
32789;BME280;19141;48.980;8.410;2023-03-22T09:36:58;99906.56;;;17.59;50.38
32789;BME280;19141;48.980;8.410;2023-03-22T09:39:29;99899.56;;;17.88;49.29
32789;BME280;19141;48.980;8.410;2023-03-22T09:42:00;99894.00;;;18.01;49.19
32789;BME280;19141;48.980;8.410;2023-03-22T09:44:36;99892.69;;;18.04;48.43
32789;BME280;19141;48.980;8.410;2023-03-22T09:47:13;99889.25;;;18.27;49.13
32789;BME280;19141;48.980;8.410;2023-03-22T09:49:42;99890.00;;;18.69;47.79
32789;BME280;19141;48.980;8.410;2023-03-22T09:52:13;99886.47;;;18.92;47.73
32789;BME280;19141;48.980;8.410;2023-03-22T09:54:41;99886.09;;;19.12;47.63
32789;BME280;19141;48.980;8.410;2023-03-22T09:57:28;99883.94;;;19.37;45.95
32789;BME280;19141;48.980;8.410;2023-03-22T10:03:05;99886.66;;;20.11;43.94
32789;BME280;19141;48.980;8.410;2023-03-22T10:05:45;99882.09;;;20.12;44.48
32789;BME280;19141;48.980;8.410;2023-03-22T10:08:24;99882.91;;;20.29;43.77
32789;BME280;19141;48.980;8.410;2023-03-22T10:10:51;99875.03;;;20.27;44.84
32789;BME280;19141;48.980;8.410;2023-03-22T10:15:50;99877.91;;;20.38;41.97
32789;BME280;19141;48.980;8.410;2023-03-22T10:18:25;99883.91;;;20.23;42.28
32789;BME280;19141;48.980;8.410;2023-03-22T10:20:59;99858.16;;;20.71;42.41
32789;BME280;19141;48.980;8.410;2023-03-22T10:23:56;99870.97;;;20.97;42.12
32789;BME280;19141;48.980;8.410;2023-03-22T10:26:34;99865.56;;;21.19;41.00
32789;BME280;19141;48.980;8.410;2023-03-22T10:29:04;99857.88;;;21.55;40.23
32789;BME280;19141;48.980;8.410;2023-03-22T10:31:33;99866.19;;;21.26;40.00
32789;BME280;19141;48.980;8.410;2023-03-22T10:34:10;99859.75;;;21.10;40.06
32789;BME280;19141;48.980;8.410;2023-03-22T10:36:41;99850.16;;;21.42;40.26
32789;BME280;19141;48.980;8.410;2023-03-22T10:41:54;99848.78;;;21.39;41.62
32789;BME280;19141;48.980;8.410;2023-03-22T10:44:21;99857.00;;;21.27;40.21
32789;BME280;19141;48.980;8.410;2023-03-22T10:46:49;99841.41;;;21.61;41.88
32789;BME280;19141;48.980;8.410;2023-03-22T10:49:24;99836.31;;;21.97;42.57
32789;BME280;19141;48.980;8.410;2023-03-22T10:51:55;99844.72;;;21.95;38.54
32789;BME280;19141;48.980;8.410;2023-03-22T10:54:23;99830.47;;;22.42;39.61
32789;BME280;19141;48.980;8.410;2023-03-22T10:56:50;99836.63;;;22.75;39.41
32789;BME280;19141;48.980;8.410;2023-03-22T10:59:46;99832.75;;;23.03;37.92
32789;BME280;19141;48.980;8.410;2023-03-22T11:02:22;99833.63;;;23.19;37.14
32789;BME280;19141;48.980;8.410;2023-03-22T11:04:52;99830.72;;;22.83;37.64
32789;BME280;19141;48.980;8.410;2023-03-22T11:07:34;99828.56;;;22.85;38.57
32789;BME280;19141;48.980;8.410;2023-03-22T11:12:42;99818.22;;;23.50;36.46
32789;BME280;19141;48.980;8.410;2023-03-22T11:17:47;99815.28;;;23.67;36.43
32789;BME280;19141;48.980;8.410;2023-03-22T11:20:16;99822.38;;;23.63;37.43
32789;BME280;19141;48.980;8.410;2023-03-22T11:22:44;99812.88;;;24.01;36.53
32789;BME280;19141;48.980;8.410;2023-03-22T11:25:21;99815.56;;;24.06;35.23
32789;BME280;19141;48.980;8.410;2023-03-22T11:28:05;99813.88;;;24.76;36.40
32789;BME280;19141;48.980;8.410;2023-03-22T11:30:32;99830.84;;;24.48;33.98
32789;BME280;19141;48.980;8.410;2023-03-22T11:33:15;99808.78;;;24.44;34.21
32789;BME280;19141;48.980;8.410;2023-03-22T11:35:44;99797.91;;;24.39;34.39
32789;BME280;19141;48.980;8.410;2023-03-22T11:38:26;99803.91;;;24.41;34.94
32789;BME280;19141;48.980;8.410;2023-03-22T11:40:57;99815.53;;;24.67;34.31
32789;BME280;19141;48.980;8.410;2023-03-22T11:43:32;99808.75;;;24.54;34.65
32789;BME280;19141;48.980;8.410;2023-03-22T11:45:59;99812.00;;;23.54;35.31
32789;BME280;19141;48.980;8.410;2023-03-22T11:48:26;99800.06;;;23.61;36.36
32789;BME280;19141;48.980;8.410;2023-03-22T11:50:57;99797.34;;;23.71;35.05
32789;BME280;19141;48.980;8.410;2023-03-22T11:53:25;99813.91;;;23.54;35.06
32789;BME280;19141;48.980;8.410;2023-03-22T11:55:53;99790.28;;;24.05;34.25
32789;BME280;19141;48.980;8.410;2023-03-22T11:58:27;99800.31;;;24.66;33.15
32789;BME280;19141;48.980;8.410;2023-03-22T12:00:58;99785.94;;;23.84;33.97
32789;BME280;19141;48.980;8.410;2023-03-22T12:03:28;99794.09;;;24.20;33.58
32789;BME280;19141;48.980;8.410;2023-03-22T12:05:55;99789.66;;;24.70;33.88
32789;BME280;19141;48.980;8.410;2023-03-22T12:08:27;99778.88;;;24.08;33.82
32789;BME280;19141;48.980;8.410;2023-03-22T12:11:07;99778.91;;;23.93;35.51
32789;BME280;19141;48.980;8.410;2023-03-22T12:13:53;99772.88;;;24.37;34.90
32789;BME280;19141;48.980;8.410;2023-03-22T12:16:25;99762.50;;;24.24;33.47
32789;BME280;19141;48.980;8.410;2023-03-22T12:19:08;99775.81;;;23.44;33.91
32789;BME280;19141;48.980;8.410;2023-03-22T12:21:39;99763.06;;;23.49;34.21
32789;BME280;19141;48.980;8.410;2023-03-22T12:24:20;99761.97;;;23.55;34.69
32789;BME280;19141;48.980;8.410;2023-03-22T12:26:47;99755.72;;;24.06;34.06
32789;BME280;19141;48.980;8.410;2023-03-22T12:29:15;99754.44;;;24.88;32.14
32789;BME280;19141;48.980;8.410;2023-03-22T12:31:58;99764.41;;;25.19;31.56
32789;BME280;19141;48.980;8.410;2023-03-22T12:34:34;99760.25;;;25.31;33.16
32789;BME280;19141;48.980;8.410;2023-03-22T12:37:01;99743.50;;;24.03;32.72
32789;BME280;19141;48.980;8.410;2023-03-22T12:39:39;99747.47;;;24.67;33.42
32789;BME280;19141;48.980;8.410;2023-03-22T12:42:35;99752.03;;;24.77;32.63
32789;BME280;19141;48.980;8.410;2023-03-22T12:45:05;99733.44;;;25.04;32.04
32789;BME280;19141;48.980;8.410;2023-03-22T12:47:44;99729.75;;;24.70;33.27
32789;BME280;19141;48.980;8.410;2023-03-22T12:50:19;99727.78;;;24.85;31.62
32789;BME280;19141;48.980;8.410;2023-03-22T12:52:46;99725.97;;;24.66;32.65
32789;BME280;19141;48.980;8.410;2023-03-22T12:55:20;99719.94;;;24.74;32.63
32789;BME280;19141;48.980;8.410;2023-03-22T12:57:46;99706.22;;;24.19;32.62
32789;BME280;19141;48.980;8.410;2023-03-22T13:00:16;99718.47;;;23.35;33.45
32789;BME280;19141;48.980;8.410;2023-03-22T13:03:04;99704.72;;;22.79;34.43
32789;BME280;19141;48.980;8.410;2023-03-22T13:05:32;99701.03;;;23.21;35.70
32789;BME280;19141;48.980;8.410;2023-03-22T13:07:58;99705.47;;;23.68;34.25
32789;BME280;19141;48.980;8.410;2023-03-22T13:13:16;99688.69;;;22.72;35.83
32789;BME280;19141;48.980;8.410;2023-03-22T13:16:00;99683.91;;;22.32;36.14
32789;BME280;19141;48.980;8.410;2023-03-22T13:23:33;99682.44;;;21.72;37.04
32789;BME280;19141;48.980;8.410;2023-03-22T13:26:01;99677.63;;;21.20;37.48
32789;BME280;19141;48.980;8.410;2023-03-22T13:28:27;99671.19;;;21.26;38.04
32789;BME280;19141;48.980;8.410;2023-03-22T13:30:56;99669.66;;;21.67;37.39
32789;BME280;19141;48.980;8.410;2023-03-22T13:33:27;99665.91;;;22.11;37.38
32789;BME280;19141;48.980;8.410;2023-03-22T13:35:57;99661.66;;;22.30;36.01
32789;BME280;19141;48.980;8.410;2023-03-22T13:38:29;99652.31;;;22.63;36.02
32789;BME280;19141;48.980;8.410;2023-03-22T13:41:04;99656.00;;;22.42;36.10
32789;BME280;19141;48.980;8.410;2023-03-22T13:43:43;99636.66;;;22.18;36.63
32789;BME280;19141;48.980;8.410;2023-03-22T13:48:51;99652.44;;;21.20;37.82
32789;BME280;19141;48.980;8.410;2023-03-22T13:56:52;99640.97;;;20.37;39.73
32789;BME280;19141;48.980;8.410;2023-03-22T14:02:14;99630.78;;;20.44;40.19
32789;BME280;19141;48.980;8.410;2023-03-22T14:05:14;99634.53;;;20.86;40.57
32789;BME280;19141;48.980;8.410;2023-03-22T14:07:47;99638.47;;;21.01;38.86
32789;BME280;19141;48.980;8.410;2023-03-22T14:10:19;99630.16;;;21.39;37.99
32789;BME280;19141;48.980;8.410;2023-03-22T14:12:56;99629.94;;;21.46;37.62
32789;BME280;19141;48.980;8.410;2023-03-22T14:15:27;99621.94;;;21.29;37.73
32789;BME280;19141;48.980;8.410;2023-03-22T14:20:50;99608.56;;;20.91;39.34
32789;BME280;19141;48.980;8.410;2023-03-22T14:23:26;99612.16;;;20.69;39.66
32789;BME280;19141;48.980;8.410;2023-03-22T14:25:56;99606.94;;;20.63;39.42
32789;BME280;19141;48.980;8.410;2023-03-22T14:28:34;99605.44;;;20.50;39.59
32789;BME280;19141;48.980;8.410;2023-03-22T14:31:01;99610.31;;;20.48;39.73
32789;BME280;19141;48.980;8.410;2023-03-22T14:33:26;99606.09;;;20.40;40.31
32789;BME280;19141;48.980;8.410;2023-03-22T14:35:58;99605.56;;;20.16;39.74
32789;BME280;19141;48.980;8.410;2023-03-22T14:38:32;99593.75;;;20.22;40.84
32789;BME280;19141;48.980;8.410;2023-03-22T14:41:14;99602.69;;;20.23;40.96
32789;BME280;19141;48.980;8.410;2023-03-22T14:43:41;99594.94;;;20.31;40.96
32789;BME280;19141;48.980;8.410;2023-03-22T14:48:50;99590.53;;;20.25;39.91
32789;BME280;19141;48.980;8.410;2023-03-22T14:51:20;99599.09;;;20.17;38.06
32789;BME280;19141;48.980;8.410;2023-03-22T14:53:47;99591.72;;;20.13;38.59
32789;BME280;19141;48.980;8.410;2023-03-22T14:56:27;99589.91;;;20.18;37.97
32789;BME280;19141;48.980;8.410;2023-03-22T14:58:55;99584.81;;;20.22;38.02
32789;BME280;19141;48.980;8.410;2023-03-22T15:01:49;99591.59;;;20.24;36.59
32789;BME280;19141;48.980;8.410;2023-03-22T15:04:19;99587.19;;;20.18;35.64
32789;BME280;19141;48.980;8.410;2023-03-22T15:06:50;99581.88;;;20.23;35.71
32789;BME280;19141;48.980;8.410;2023-03-22T15:09:19;99578.00;;;20.19;36.14
32789;BME280;19141;48.980;8.410;2023-03-22T15:11:46;99584.88;;;20.27;35.37
32789;BME280;19141;48.980;8.410;2023-03-22T15:14:14;99587.00;;;20.25;36.80
32789;BME280;19141;48.980;8.410;2023-03-22T15:16:42;99591.03;;;20.00;38.48
32789;BME280;19141;48.980;8.410;2023-03-22T15:19:12;99590.84;;;20.07;38.60
32789;BME280;19141;48.980;8.410;2023-03-22T15:21:40;99585.44;;;20.07;39.22
32789;BME280;19141;48.980;8.410;2023-03-22T15:24:33;99585.41;;;20.02;39.53
32789;BME280;19141;48.980;8.410;2023-03-22T15:27:10;99588.03;;;19.97;39.64
32789;BME280;19141;48.980;8.410;2023-03-22T15:29:40;99577.22;;;19.97;39.65
32789;BME280;19141;48.980;8.410;2023-03-22T15:32:14;99577.06;;;19.87;39.60
32789;BME280;19141;48.980;8.410;2023-03-22T15:34:40;99573.28;;;19.88;40.16
32789;BME280;19141;48.980;8.410;2023-03-22T15:37:18;99572.03;;;19.73;40.31
32789;BME280;19141;48.980;8.410;2023-03-22T15:39:46;99568.50;;;19.73;39.74
32789;BME280;19141;48.980;8.410;2023-03-22T15:42:20;99574.91;;;19.67;39.48
32789;BME280;19141;48.980;8.410;2023-03-22T15:44:53;99578.16;;;19.69;39.95
32789;BME280;19141;48.980;8.410;2023-03-22T15:47:19;99574.00;;;19.78;39.77
32789;BME280;19141;48.980;8.410;2023-03-22T15:49:48;99578.84;;;19.76;39.81
32789;BME280;19141;48.980;8.410;2023-03-22T15:52:27;99564.19;;;19.72;39.67
32789;BME280;19141;48.980;8.410;2023-03-22T15:57:34;99568.53;;;19.56;39.15
32789;BME280;19141;48.980;8.410;2023-03-22T16:02:30;99577.13;;;19.53;39.41
32789;BME280;19141;48.980;8.410;2023-03-22T16:04:57;99571.06;;;19.46;39.14
32789;BME280;19141;48.980;8.410;2023-03-22T16:07:27;99574.03;;;19.44;39.86
32789;BME280;19141;48.980;8.410;2023-03-22T16:09:54;99568.72;;;19.33;39.17
32789;BME280;19141;48.980;8.410;2023-03-22T16:12:20;99567.06;;;19.32;39.19
32789;BME280;19141;48.980;8.410;2023-03-22T16:14:46;99569.28;;;19.35;39.55
32789;BME280;19141;48.980;8.410;2023-03-22T16:17:17;99567.16;;;19.37;39.08
32789;BME280;19141;48.980;8.410;2023-03-22T16:19:42;99569.88;;;19.37;39.05
32789;BME280;19141;48.980;8.410;2023-03-22T16:22:10;99571.16;;;19.34;39.81
32789;BME280;19141;48.980;8.410;2023-03-22T16:24:35;99571.41;;;19.33;39.92
32789;BME280;19141;48.980;8.410;2023-03-22T16:27:01;99581.31;;;19.27;39.93
32789;BME280;19141;48.980;8.410;2023-03-22T16:29:33;99570.59;;;19.32;39.58
32789;BME280;19141;48.980;8.410;2023-03-22T16:31:58;99572.38;;;19.27;40.09
32789;BME280;19141;48.980;8.410;2023-03-22T16:34:24;99583.03;;;19.33;40.10
32789;BME280;19141;48.980;8.410;2023-03-22T16:36:49;99578.59;;;19.27;39.56
32789;BME280;19141;48.980;8.410;2023-03-22T16:39:14;99583.91;;;19.22;40.85
32789;BME280;19141;48.980;8.410;2023-03-22T16:41:40;99583.09;;;19.21;40.07
32789;BME280;19141;48.980;8.410;2023-03-22T16:44:05;99588.09;;;19.13;40.32
32789;BME280;19141;48.980;8.410;2023-03-22T16:46:31;99593.75;;;19.11;41.36
32789;BME280;19141;48.980;8.410;2023-03-22T16:48:58;99591.88;;;19.12;40.84
32789;BME280;19141;48.980;8.410;2023-03-22T16:51:25;99585.31;;;19.08;41.64
32789;BME280;19141;48.980;8.410;2023-03-22T16:53:52;99589.25;;;19.00;42.23
32789;BME280;19141;48.980;8.410;2023-03-22T16:56:23;99585.63;;;18.94;42.03
32789;BME280;19141;48.980;8.410;2023-03-22T16:58:50;99591.19;;;18.88;42.13
32789;BME280;19141;48.980;8.410;2023-03-22T17:01:17;99583.25;;;18.81;40.97
32789;BME280;19141;48.980;8.410;2023-03-22T17:03:44;99595.03;;;18.63;42.00
32789;BME280;19141;48.980;8.410;2023-03-22T17:06:12;99586.13;;;18.63;43.70
32789;BME280;19141;48.980;8.410;2023-03-22T17:08:37;99585.19;;;18.57;42.37
32789;BME280;19141;48.980;8.410;2023-03-22T17:11:03;99590.53;;;18.52;43.06
32789;BME280;19141;48.980;8.410;2023-03-22T17:13:28;99591.69;;;18.44;43.07
32789;BME280;19141;48.980;8.410;2023-03-22T17:15:54;99590.56;;;18.40;43.76
32789;BME280;19141;48.980;8.410;2023-03-22T17:18:19;99591.25;;;18.36;43.12
32789;BME280;19141;48.980;8.410;2023-03-22T17:20:45;99597.84;;;18.28;43.12
32789;BME280;19141;48.980;8.410;2023-03-22T17:23:12;99580.09;;;18.15;43.06
32789;BME280;19141;48.980;8.410;2023-03-22T17:25:41;99596.50;;;18.14;43.34
32789;BME280;19141;48.980;8.410;2023-03-22T17:28:09;99598.38;;;18.13;45.01
32789;BME280;19141;48.980;8.410;2023-03-22T17:30:35;99601.34;;;18.00;42.71
32789;BME280;19141;48.980;8.410;2023-03-22T17:33:02;99612.00;;;17.95;42.74
32789;BME280;19141;48.980;8.410;2023-03-22T17:35:28;99603.09;;;17.83;42.77
32789;BME280;19141;48.980;8.410;2023-03-22T17:37:58;99604.94;;;17.71;43.12
32789;BME280;19141;48.980;8.410;2023-03-22T17:40:28;99612.91;;;17.66;43.46
32789;BME280;19141;48.980;8.410;2023-03-22T17:42:54;99615.38;;;17.55;43.14
32789;BME280;19141;48.980;8.410;2023-03-22T17:45:27;99617.47;;;17.53;43.34
32789;BME280;19141;48.980;8.410;2023-03-22T17:47:52;99622.50;;;17.38;43.48
32789;BME280;19141;48.980;8.410;2023-03-22T17:50:18;99613.72;;;17.31;43.80
32789;BME280;19141;48.980;8.410;2023-03-22T17:52:44;99619.44;;;17.23;43.59
32789;BME280;19141;48.980;8.410;2023-03-22T17:55:19;99620.13;;;17.18;43.54
32789;BME280;19141;48.980;8.410;2023-03-22T17:57:45;99629.94;;;17.13;43.37
32789;BME280;19141;48.980;8.410;2023-03-22T18:00:13;99622.78;;;17.06;43.95
32789;BME280;19141;48.980;8.410;2023-03-22T18:02:39;99625.72;;;17.05;44.06
32789;BME280;19141;48.980;8.410;2023-03-22T18:05:05;99625.00;;;16.98;44.24
32789;BME280;19141;48.980;8.410;2023-03-22T18:07:31;99626.16;;;16.90;44.24
32789;BME280;19141;48.980;8.410;2023-03-22T18:09:56;99622.84;;;16.88;44.42
32789;BME280;19141;48.980;8.410;2023-03-22T18:12:21;99627.31;;;16.83;44.53
32789;BME280;19141;48.980;8.410;2023-03-22T18:14:47;99618.88;;;16.79;44.46
32789;BME280;19141;48.980;8.410;2023-03-22T18:17:12;99619.34;;;16.76;44.49
32789;BME280;19141;48.980;8.410;2023-03-22T18:19:38;99630.16;;;16.69;46.08
32789;BME280;19141;48.980;8.410;2023-03-22T18:22:04;99635.38;;;16.64;46.98
32789;BME280;19141;48.980;8.410;2023-03-22T18:24:29;99636.88;;;16.60;46.85
32789;BME280;19141;48.980;8.410;2023-03-22T18:26:56;99631.59;;;16.53;47.19
32789;BME280;19141;48.980;8.410;2023-03-22T18:29:27;99630.03;;;16.46;46.30
32789;BME280;19141;48.980;8.410;2023-03-22T18:31:52;99632.34;;;16.42;46.08
32789;BME280;19141;48.980;8.410;2023-03-22T18:34:18;99632.91;;;16.33;46.45
32789;BME280;19141;48.980;8.410;2023-03-22T18:36:45;99638.69;;;16.29;47.35
32789;BME280;19141;48.980;8.410;2023-03-22T18:39:11;99631.78;;;16.22;47.65
32789;BME280;19141;48.980;8.410;2023-03-22T18:41:44;99643.13;;;16.24;47.47
32789;BME280;19141;48.980;8.410;2023-03-22T18:44:14;99649.41;;;16.18;48.07
32789;BME280;19141;48.980;8.410;2023-03-22T18:46:41;99647.59;;;16.12;47.86
32789;BME280;19141;48.980;8.410;2023-03-22T18:49:07;99649.38;;;15.99;49.70
32789;BME280;19141;48.980;8.410;2023-03-22T18:51:32;99643.28;;;15.92;49.97
32789;BME280;19141;48.980;8.410;2023-03-22T18:53:58;99645.72;;;15.94;49.88
32789;BME280;19141;48.980;8.410;2023-03-22T18:56:23;99644.75;;;15.88;48.79
32789;BME280;19141;48.980;8.410;2023-03-22T18:58:49;99644.59;;;15.83;50.00
32789;BME280;19141;48.980;8.410;2023-03-22T19:01:15;99641.59;;;15.73;49.32
32789;BME280;19141;48.980;8.410;2023-03-22T19:03:40;99640.56;;;15.74;48.97
32789;BME280;19141;48.980;8.410;2023-03-22T19:06:11;99642.47;;;15.67;50.38
32789;BME280;19141;48.980;8.410;2023-03-22T19:08:38;99640.66;;;15.61;49.93
32789;BME280;19141;48.980;8.410;2023-03-22T19:11:04;99643.97;;;15.56;52.46
32789;BME280;19141;48.980;8.410;2023-03-22T19:13:30;99639.28;;;15.52;50.80
32789;BME280;19141;48.980;8.410;2023-03-22T19:16:03;99644.28;;;15.48;51.51
32789;BME280;19141;48.980;8.410;2023-03-22T19:18:30;99636.88;;;15.43;52.35
32789;BME280;19141;48.980;8.410;2023-03-22T19:20:55;99643.09;;;15.37;52.39
32789;BME280;19141;48.980;8.410;2023-03-22T19:23:21;99640.88;;;15.34;52.12